Time;durP1;ratioP1;P1;durP2;ratioP2;P2;SDS_P1;SDS_P2;PMS_P1;PMS_P2;Temp;Humidity;BMP_temperature;BMP_pressure;BME280_temperature;BME280_humidity;BME280_pressure;Samples;Min_cycle;Max_cycle;Signal;HPM_P1;HPM_P2
2023/07/30 00:00:19;;;;;;;3.90;2.30;;;;;;;18.81;74.54;97928.32;435158;1254;99253;-43
2023/07/30 00:10:46;;;;;;;5.90;1.70;;;;;;;18.82;75.03;97933.27;434971;1256;342699;-43
2023/07/30 00:20:53;;;;;;;2.40;1.90;;;;;;;18.79;74.88;97938.10;435213;1256;107605;-43
2023/07/30 00:31:00;;;;;;;2.70;2.00;;;;;;;18.73;75.24;97940.38;435155;1257;99292;-42
2023/07/30 00:41:07;;;;;;;6.70;1.90;;;;;;;18.86;75.63;97946.48;435182;1253;108559;-42
2023/07/30 00:51:16;;;;;;;3.20;1.70;;;;;;;18.73;75.46;97956.59;435248;1253;99225;-42
2023/07/30 01:01:24;;;;;;;4.90;1.90;;;;;;;18.50;75.56;97962.76;435395;1257;113037;-41
2023/07/30 01:11:32;;;;;;;3.30;1.90;;;;;;;18.24;75.88;97972.70;435141;1253;106999;-43
2023/07/30 01:21:39;;;;;;;4.10;2.00;;;;;;;18.04;76.23;97982.63;435190;1256;99237;-42
2023/07/30 01:31:46;;;;;;;4.90;1.70;;;;;;;17.87;76.52;97993.14;435836;1256;107908;-41
2023/07/30 01:41:54;;;;;;;5.60;2.00;;;;;;;17.74;76.79;97993.54;435311;1257;99224;-41
2023/07/30 01:52:01;;;;;;;4.40;2.10;;;;;;;17.66;77.10;97989.76;435117;1257;111973;-42
2023/07/30 02:02:08;;;;;;;5.20;2.60;;;;;;;17.38;77.22;98003.41;435075;1257;107759;-41
2023/07/30 02:12:16;;;;;;;5.60;1.90;;;;;;;17.25;77.71;98000.74;435104;1253;99247;-42
2023/07/30 02:22:23;;;;;;;4.10;2.40;;;;;;;17.17;78.10;98005.02;435161;1257;108791;-43
2023/07/30 02:32:30;;;;;;;3.60;2.00;;;;;;;17.03;78.27;98004.73;435161;1254;98833;-43
2023/07/30 02:42:37;;;;;;;4.70;2.30;;;;;;;16.93;78.23;98009.17;435210;1257;113074;-43
2023/07/30 02:52:45;;;;;;;5.60;2.30;;;;;;;16.84;78.73;98009.87;435216;1256;108131;-43
2023/07/30 03:02:52;;;;;;;2.20;1.90;;;;;;;16.80;78.62;98007.46;435149;1254;98840;-42
2023/07/30 03:12:59;;;;;;;9.50;2.50;;;;;;;16.79;78.84;98002.71;435085;1257;107364;-43
2023/07/30 03:23:07;;;;;;;8.00;1.60;;;;;;;16.81;78.81;98008.52;435238;1256;99221;-42
2023/07/30 03:33:14;;;;;;;2.20;1.70;;;;;;;16.89;78.80;98006.83;435153;1254;111728;-42
2023/07/30 03:43:21;;;;;;;3.70;2.00;;;;;;;17.27;79.10;98018.67;435225;1254;107427;-42
2023/07/30 03:53:28;;;;;;;3.70;2.40;;;;;;;18.88;78.29;98023.54;435173;1253;99425;-43
2023/07/30 04:03:35;;;;;;;3.80;2.50;;;;;;;20.27;76.52;98031.69;435232;1254;107141;-43
2023/07/30 04:13:42;;;;;;;4.10;2.50;;;;;;;21.51;75.14;98026.41;435216;1254;98923;-44
2023/07/30 04:23:48;;;;;;;;;;;;;;;22.76;73.03;98017.23;435398;1256;111335;-43
2023/07/30 04:33:55;;;;;;;4.20;2.70;;;;;;;23.55;72.04;98047.05;435135;1254;106854;-43
2023/07/30 04:44:02;;;;;;;3.30;1.60;;;;;;;24.01;70.49;98064.04;435446;1256;99221;-42
2023/07/30 04:54:09;;;;;;;2.70;2.30;;;;;;;24.49;69.56;98068.52;435185;1256;109735;-41
2023/07/30 05:04:16;;;;;;;4.30;2.30;;;;;;;25.02;68.04;98075.15;435293;1254;98020;-41
2023/07/30 05:14:23;;;;;;;2.50;1.30;;;;;;;25.37;66.64;98072.95;435149;1256;111718;-43
2023/07/30 05:34:35;;;;;;;1.70;1.40;;;;;;;25.31;64.77;98076.41;435388;1256;98647;-42
2023/07/30 05:44:42;;;;;;;2.00;1.60;;;;;;;25.47;63.74;98078.21;435313;1256;108113;-41
2023/07/30 05:54:49;;;;;;;1.70;1.60;;;;;;;25.34;62.71;98077.64;435153;1256;99199;-42
2023/07/30 06:04:54;;;;;;;;;;;;;;;25.41;61.61;98084.05;435327;1254;111813;-42
2023/07/30 06:15:00;;;;;;;3.90;2.00;;;;;;;25.62;61.39;98090.95;435225;1254;108369;-41
2023/07/30 06:25:08;;;;;;;3.00;1.70;;;;;;;26.12;60.42;98090.58;435362;1253;99212;-41
2023/07/30 06:35:33;;;;;;;2.50;1.70;;;;;;;26.06;59.65;98092.34;435210;1254;111745;-42
2023/07/30 06:45:40;;;;;;;2.40;1.90;;;;;;;26.38;59.73;98102.99;435230;1256;97972;-43
2023/07/30 06:55:46;;;;;;;3.50;2.20;;;;;;;26.58;59.02;98111.84;435176;1254;111834;-43
2023/07/30 07:16:00;;;;;;;2.50;2.30;;;;;;;26.67;58.17;98124.68;435342;1256;99317;-43
2023/07/30 07:26:07;;;;;;;3.10;2.30;;;;;;;26.74;57.32;98118.90;435296;1256;108054;-43
2023/07/30 07:46:21;;;;;;;4.00;2.40;;;;;;;27.39;56.28;98099.66;435212;1252;113097;-41
2023/07/30 07:56:24;;;;;;;;;;;;;;;27.76;54.89;98107.27;435202;1256;108022;-42
2023/07/30 08:06:32;;;;;;;2.50;1.70;;;;;;;27.93;54.41;98110.12;435253;1256;99226;-43
2023/07/30 08:16:39;;;;;;;3.00;2.00;;;;;;;28.13;53.84;98106.11;435351;1256;107496;-45
2023/07/30 08:36:52;;;;;;;3.40;2.00;;;;;;;27.45;53.27;98109.59;435349;1254;110873;-43
2023/07/30 08:57:03;;;;;;;;;;;;;;;27.07;53.23;98119.75;435250;1256;99243;-41
2023/07/30 09:07:09;;;;;;;2.90;2.00;;;;;;;27.13;52.91;98122.85;435163;1254;107588;-43
2023/07/30 09:17:19;;;;;;;2.10;1.80;;;;;;;27.30;52.68;98118.79;435199;1252;99231;-42
2023/07/30 09:27:27;;;;;;;3.20;2.90;;;;;;;26.75;51.93;98125.90;435215;1256;111290;-42
2023/07/30 09:47:46;;;;;;;1.80;1.70;;;;;;;26.41;53.02;98115.05;435187;1257;98350;-42
2023/07/30 09:57:53;;;;;;;3.50;1.80;;;;;;;27.38;52.17;98100.10;435340;1257;108465;-42
2023/07/30 10:08:07;;;;;;;2.10;2.00;;;;;;;27.84;51.50;98096.20;435230;1254;99352;-42
2023/07/30 10:18:15;;;;;;;5.70;2.00;;;;;;;27.92;50.88;98094.49;435185;1257;112991;-41
2023/07/30 10:28:32;;;;;;;4.10;1.70;;;;;;;27.94;50.76;98085.28;435087;1254;108515;-43
2023/07/30 10:48:50;;;;;;;1.70;1.60;;;;;;;28.26;49.11;98077.69;435323;1254;108694;-42
2023/07/30 10:58:58;;;;;;;2.50;1.80;;;;;;;27.72;49.60;98080.34;435221;1256;98829;-42
2023/07/30 11:09:06;;;;;;;1.90;1.50;;;;;;;27.95;49.65;98076.45;435244;1257;112781;-42
2023/07/30 11:19:14;;;;;;;3.80;1.90;;;;;;;28.03;49.13;98075.08;435180;1256;108554;-42
2023/07/30 11:29:21;;;;;;;3.80;1.80;;;;;;;28.39;48.97;98070.75;435341;1256;99225;-43
2023/07/30 11:39:28;;;;;;;1.60;1.40;;;;;;;28.62;47.84;98065.48;435270;1256;108345;-43
2023/07/30 11:49:35;;;;;;;1.50;1.40;;;;;;;28.66;47.04;98057.55;435312;1256;99288;-42
2023/07/30 12:19:55;;;;;;;1.60;1.40;;;;;;;29.09;46.39;98051.66;434949;1256;99217;-42
2023/07/30 12:30:01;;;;;;;2.80;1.70;;;;;;;28.85;46.02;98051.65;435295;1256;108600;-42
2023/07/30 12:40:10;;;;;;;5.30;2.00;;;;;;;28.31;45.88;98053.73;435267;1256;98047;-42
2023/07/30 12:50:18;;;;;;;1.60;1.40;;;;;;;28.34;46.40;98042.13;435207;1256;112700;-42
2023/07/30 13:00:25;;;;;;;9.20;1.80;;;;;;;28.64;46.28;98033.89;435203;1256;108669;-42
2023/07/30 13:10:33;;;;;;;2.30;1.50;;;;;;;28.46;46.15;98025.12;435283;1256;99241;-42
2023/07/30 13:20:39;;;;;;;2.40;1.30;;;;;;;28.31;45.81;98021.11;435256;1257;109827;-42
2023/07/30 13:30:44;;;;;;;2.00;1.50;;;;;;;28.19;45.45;98021.87;435231;1253;98049;-41
2023/07/30 13:40:50;;;;;;;1.30;1.20;;;;;;;28.19;45.00;98025.91;435151;1256;111798;-40
2023/07/30 13:50:57;;;;;;;1.80;1.50;;;;;;;28.22;44.84;98022.27;435281;1256;109016;-42
2023/07/30 14:01:03;;;;;;;3.10;1.60;;;;;;;28.05;44.88;98018.66;435248;1257;97986;-42
2023/07/30 14:11:11;;;;;;;2.10;1.00;;;;;;;27.42;45.25;98006.02;435142;1254;107447;-42
2023/07/30 14:21:18;;;;;;;1.60;1.50;;;;;;;27.18;45.85;97999.14;435092;1254;99228;-42
2023/07/30 14:31:24;;;;;;;1.60;1.50;;;;;;;27.07;46.06;97989.50;435025;1254;112357;-42
2023/07/30 14:41:31;;;;;;;1.80;1.70;;;;;;;26.92;46.45;97993.34;435081;1257;107576;-42
2023/07/30 14:51:38;;;;;;;2.80;1.60;;;;;;;26.97;46.56;97989.64;435140;1256;99340;-44
2023/07/30 15:01:46;;;;;;;5.10;1.40;;;;;;;26.85;46.69;97981.00;435143;1256;107548;-42
2023/07/30 15:11:53;;;;;;;1.40;1.30;;;;;;;26.70;47.00;97981.66;435135;1254;99244;-42
2023/07/30 15:32:06;;;;;;;1.70;1.40;;;;;;;26.60;46.71;97978.48;435013;1253;107949;-41
2023/07/30 15:42:12;;;;;;;1.60;1.50;;;;;;;26.33;46.72;97988.39;435223;1257;99218;-42
2023/07/30 15:52:20;;;;;;;2.30;2.10;;;;;;;25.76;47.45;97988.48;435044;1256;108518;-41
2023/07/30 16:02:29;;;;;;;2.20;1.40;;;;;;;25.33;48.44;97996.03;435124;1254;99230;-42
2023/07/30 16:12:36;;;;;;;3.00;2.70;;;;;;;24.90;48.89;98002.05;435140;1257;111094;-43
2023/07/30 16:22:44;;;;;;;3.10;1.80;;;;;;;24.42;49.82;97997.33;435199;1254;108811;-42
2023/07/30 16:32:51;;;;;;;2.30;2.00;;;;;;;24.04;51.45;98012.21;435223;1257;98840;-42
2023/07/30 16:42:58;;;;;;;3.20;2.00;;;;;;;23.80;52.87;98026.70;435338;1256;108037;-42
2023/07/30 16:53:04;;;;;;;4.20;2.00;;;;;;;23.54;54.03;98057.52;435117;1257;99222;-43
2023/07/30 17:03:11;;;;;;;1.80;1.70;;;;;;;23.41;54.47;98056.63;435281;1256;112124;-42
2023/07/30 17:13:20;;;;;;;3.10;2.80;;;;;;;23.19;54.98;98075.19;435279;1257;109015;-47
2023/07/30 17:23:26;;;;;;;;;;;;;;;22.96;55.41;98079.36;435299;1257;98691;-42
2023/07/30 17:33:32;;;;;;;4.30;1.90;;;;;;;22.69;55.90;98082.23;435174;1263;108170;-42
2023/07/30 17:43:39;;;;;;;3.60;2.00;;;;;;;22.69;56.34;98089.46;435192;1257;99221;-42
2023/07/30 17:53:47;;;;;;;3.70;1.80;;;;;;;22.63;56.62;98087.14;435026;1267;112066;-42
2023/07/30 18:03:59;;;;;;;3.40;2.20;;;;;;;22.41;57.04;98082.20;435105;1258;108171;-42
2023/07/30 18:14:06;;;;;;;2.30;2.00;;;;;;;22.14;57.27;98078.80;434995;1265;99317;-43
2023/07/30 18:24:13;;;;;;;5.30;2.60;;;;;;;21.74;57.87;98082.83;435199;1256;108084;-42
2023/07/30 18:34:19;;;;;;;7.40;2.20;;;;;;;21.45;58.66;98086.59;435081;1257;99271;-42
2023/07/30 18:44:27;;;;;;;6.00;3.80;;;;;;;21.20;59.38;98088.38;435068;1257;112150;-43
2023/07/30 18:54:32;;;;;;;;;;;;;;;20.93;60.45;98101.08;435088;1257;108131;-43
2023/07/30 19:04:39;;;;;;;6.80;4.60;;;;;;;20.48;61.61;98121.39;435256;1257;99333;-42
2023/07/30 19:14:47;;;;;;;11.00;5.60;;;;;;;20.09;62.94;98138.97;435160;1265;108682;-42
2023/07/30 19:24:55;;;;;;;8.00;4.70;;;;;;;19.76;64.24;98138.45;435081;1254;99231;-43
2023/07/30 19:35:02;;;;;;;8.10;4.50;;;;;;;19.58;65.36;98142.42;435020;1258;111273;-43
2023/07/30 19:45:10;;;;;;;7.70;5.80;;;;;;;19.54;66.36;98149.59;435021;1257;108506;-42
2023/07/30 19:55:18;;;;;;;6.50;4.00;;;;;;;19.57;67.12;98149.20;435193;1256;98810;-42
2023/07/30 20:05:25;;;;;;;7.00;4.80;;;;;;;19.62;67.77;98153.77;435059;1254;108572;-42
2023/07/30 20:25:39;;;;;;;6.90;4.50;;;;;;;19.88;68.65;98158.96;435176;1257;112520;-44
2023/07/30 20:35:46;;;;;;;7.00;4.30;;;;;;;19.84;68.90;98153.73;435110;1266;108406;-40
2023/07/30 20:45:54;;;;;;;6.50;4.50;;;;;;;19.72;69.10;98147.06;435129;1266;99353;-43
2023/07/30 20:56:02;;;;;;;7.50;5.90;;;;;;;19.44;69.78;98151.15;435278;1257;108724;-42
2023/07/30 21:06:10;;;;;;;9.90;5.90;;;;;;;19.20;70.08;98139.41;435092;1257;99365;-41
2023/07/30 21:16:16;;;;;;;;;;;;;;;19.16;70.65;98140.77;435131;1255;110329;-42
2023/07/30 21:26:23;;;;;;;12.40;6.50;;;;;;;19.22;71.03;98142.48;435176;1257;107810;-42
2023/07/30 21:36:29;;;;;;;8.10;4.60;;;;;;;19.20;71.10;98139.35;435197;1253;99225;-41
2023/07/30 21:46:36;;;;;;;6.30;4.90;;;;;;;19.28;71.19;98139.41;435090;1254;108913;-42
2023/07/30 21:56:44;;;;;;;7.60;4.90;;;;;;;19.32;71.42;98140.08;435180;1254;99243;-42
2023/07/30 22:16:57;;;;;;;8.10;4.60;;;;;;;19.21;71.46;98138.23;435163;1253;107827;-42
2023/07/30 22:27:04;;;;;;;5.70;4.50;;;;;;;19.26;71.74;98139.61;434909;1254;99212;-42
2023/07/30 22:47:18;;;;;;;4.10;3.40;;;;;;;19.16;71.73;98128.88;435030;1254;99317;-42
2023/07/30 22:57:25;;;;;;;7.60;4.20;;;;;;;18.98;71.92;98126.54;435160;1256;112296;-42
2023/07/30 23:07:32;;;;;;;4.60;4.00;;;;;;;18.93;72.08;98129.20;435200;1256;107968;-42
2023/07/30 23:17:39;;;;;;;8.10;4.80;;;;;;;18.78;72.38;98132.52;435068;1253;99224;-41
2023/07/30 23:27:46;;;;;;;4.50;3.90;;;;;;;18.57;72.65;98139.17;435264;1256;108588;-42
2023/07/30 23:37:53;;;;;;;5.00;3.40;;;;;;;18.41;72.91;98132.67;435193;1257;97986;-41
2023/07/30 23:48:01;;;;;;;5.50;4.30;;;;;;;18.45;73.44;98160.83;435191;1254;112213;-42
2023/07/30 23:58:09;;;;;;;9.40;4.60;;;;;;;18.62;73.92;98158.59;435091;1256;108879;-39
